createdAt,value
2023-04-22T00:00:12.486Z,4.10
2023-04-22T00:03:01.401Z,4.00
2023-04-22T00:05:31.997Z,5.40
2023-04-22T00:07:58.888Z,4.70
2023-04-22T00:10:29.695Z,5.00
2023-04-22T00:12:56.488Z,4.80
2023-04-22T00:15:27.097Z,3.60
2023-04-22T00:17:54.061Z,4.00
2023-04-22T00:20:21.445Z,4.40
2023-04-22T00:22:48.364Z,3.80
2023-04-22T00:25:18.402Z,3.90
2023-04-22T00:27:45.287Z,3.50
2023-04-22T00:30:14.838Z,3.80
2023-04-22T00:32:41.777Z,4.20
2023-04-22T00:35:28.605Z,4.10
2023-04-22T00:37:56.095Z,3.70
2023-04-22T00:40:24.849Z,4.50
2023-04-22T00:42:51.654Z,3.60
2023-04-22T00:45:38.793Z,3.90
2023-04-22T00:48:05.759Z,3.90
2023-04-22T00:50:49.114Z,4.60
2023-04-22T00:53:16.050Z,4.90
2023-04-22T00:55:48.345Z,4.10
2023-04-22T01:02:08.737Z,4.40
2023-04-22T01:04:35.934Z,5.10
2023-04-22T01:07:09.661Z,4.30
2023-04-22T01:09:36.789Z,3.40
2023-04-22T01:12:03.572Z,3.80
2023-04-22T01:14:30.406Z,4.30
2023-04-22T01:16:57.604Z,4.40
2023-04-22T01:19:25.670Z,3.70
2023-04-22T01:21:54.017Z,3.40
2023-04-22T01:24:21.857Z,3.20
2023-04-22T01:26:50.945Z,3.40
2023-04-22T01:29:17.861Z,3.80
2023-04-22T01:31:45.784Z,3.50
2023-04-22T01:34:12.505Z,3.90
2023-04-22T01:36:47.820Z,3.50
2023-04-22T01:39:14.644Z,3.30
2023-04-22T01:41:41.797Z,3.80
2023-04-22T01:44:08.648Z,3.80
2023-04-22T01:46:37.689Z,3.60
2023-04-22T01:49:06.346Z,4.40
2023-04-22T01:51:33.283Z,4.30
2023-04-22T01:54:03.429Z,5.20
2023-04-22T01:56:32.289Z,3.80
2023-04-22T01:58:59.214Z,3.80
2023-04-22T02:01:44.995Z,4.90
2023-04-22T02:04:11.770Z,6.80
2023-04-22T02:06:54.646Z,4.90
2023-04-22T02:09:21.626Z,6.20
2023-04-22T02:11:49.779Z,5.80
2023-04-22T02:14:16.536Z,5.70
2023-04-22T02:16:43.884Z,7.60
2023-04-22T02:19:10.871Z,5.70
2023-04-22T02:21:45.637Z,7.80
2023-04-22T02:24:12.410Z,5.90
2023-04-22T02:26:55.026Z,6.10
2023-04-22T02:29:23.784Z,6.50
2023-04-22T02:32:06.712Z,8.90
2023-04-22T02:34:33.468Z,7.70
2023-04-22T02:37:00.424Z,7.60
2023-04-22T02:39:27.168Z,5.10
2023-04-22T02:41:56.056Z,7.20
2023-04-22T02:44:22.847Z,6.30
2023-04-22T02:46:53.786Z,8.00
2023-04-22T02:49:20.582Z,7.70
2023-04-22T02:51:56.769Z,5.80
2023-04-22T02:54:23.533Z,7.20
2023-04-22T02:57:07.240Z,5.50
2023-04-22T02:59:35.476Z,4.80
2023-04-22T03:02:07.120Z,5.10
2023-04-22T03:04:49.927Z,4.90
2023-04-22T03:07:20.654Z,5.40
2023-04-22T03:09:47.392Z,5.30
2023-04-22T03:12:30.223Z,6.30
2023-04-22T03:14:57.000Z,5.20
2023-04-22T03:17:25.838Z,4.30
2023-04-22T03:19:52.956Z,4.30
2023-04-22T03:22:23.832Z,5.20
2023-04-22T03:24:51.852Z,5.50
2023-04-22T03:27:36.131Z,6.90
2023-04-22T03:30:04.858Z,4.70
2023-04-22T03:32:53.138Z,5.50
2023-04-22T03:35:22.950Z,9.10
2023-04-22T03:37:53.612Z,6.80
2023-04-22T03:40:32.345Z,6.70
2023-04-22T03:43:03.915Z,5.90
2023-04-22T03:45:31.578Z,6.90
2023-04-22T03:48:18.792Z,8.00
2023-04-22T03:50:48.834Z,6.30
2023-04-22T03:53:20.489Z,5.00
2023-04-22T03:55:47.356Z,4.80
2023-04-22T03:58:14.812Z,3.90
2023-04-22T04:00:42.081Z,4.60
2023-04-22T04:03:11.329Z,3.70
2023-04-22T04:05:39.343Z,4.60
2023-04-22T04:08:06.226Z,4.50
2023-04-22T04:10:33.062Z,4.30
2023-04-22T04:13:16.072Z,4.10
2023-04-22T04:15:52.029Z,4.60
2023-04-22T04:18:23.151Z,4.50
2023-04-22T04:20:50.509Z,4.20
2023-04-22T04:23:17.874Z,4.50
2023-04-22T04:25:45.750Z,4.30
2023-04-22T04:28:13.540Z,5.00
2023-04-22T04:30:41.219Z,4.90
2023-04-22T04:33:16.185Z,5.00
2023-04-22T04:35:44.257Z,4.40
2023-04-22T04:38:12.322Z,4.40
2023-04-22T04:40:39.446Z,4.90
2023-04-22T04:43:31.519Z,3.80
2023-04-22T04:46:12.308Z,3.90
2023-04-22T04:48:42.548Z,3.80
2023-04-22T04:51:09.727Z,3.50
2023-04-22T04:53:43.318Z,3.50
2023-04-22T04:56:11.469Z,4.50
2023-04-22T04:58:38.550Z,5.00
2023-04-22T05:01:16.626Z,4.50
2023-04-22T05:03:44.530Z,4.50
2023-04-22T05:06:12.717Z,5.90
2023-04-22T05:08:41.083Z,4.50
2023-04-22T05:11:09.224Z,3.80
2023-04-22T05:13:36.220Z,3.30
2023-04-22T05:16:03.444Z,4.20
2023-04-22T05:18:31.363Z,4.00
2023-04-22T05:20:59.582Z,5.20
2023-04-22T05:23:34.576Z,5.20
2023-04-22T05:26:01.502Z,3.90
2023-04-22T05:28:28.981Z,4.00
2023-04-22T05:30:57.137Z,4.30
2023-04-22T05:33:27.972Z,4.90
2023-04-22T05:35:55.321Z,4.30
2023-04-22T05:38:22.216Z,3.90
2023-04-22T05:40:49.023Z,4.00
2023-04-22T05:43:16.191Z,4.50
2023-04-22T05:45:47.213Z,5.30
2023-04-22T05:48:15.246Z,5.60
2023-04-22T05:50:49.089Z,4.10
2023-04-22T05:53:18.010Z,4.40
2023-04-22T05:55:44.817Z,4.60
2023-04-22T05:58:11.763Z,4.80
2023-04-22T06:00:45.741Z,4.60
2023-04-22T06:03:23.497Z,4.40
2023-04-22T06:05:51.349Z,4.50
2023-04-22T06:08:19.975Z,4.80
2023-04-22T06:10:59.311Z,4.30
2023-04-22T06:13:45.623Z,5.50
2023-04-22T06:16:13.025Z,4.50
2023-04-22T06:18:42.984Z,4.60
2023-04-22T06:21:11.633Z,5.20
2023-04-22T06:23:38.395Z,4.30
2023-04-22T06:26:05.508Z,4.60
2023-04-22T06:28:32.674Z,3.80
2023-04-22T06:31:02.271Z,4.30
2023-04-22T06:33:33.981Z,4.60
2023-04-22T06:36:01.623Z,4.70
2023-04-22T06:38:30.646Z,5.10
2023-04-22T06:41:17.422Z,4.70
2023-04-22T06:43:49.191Z,4.70
2023-04-22T06:46:19.056Z,4.60
2023-04-22T06:48:51.757Z,5.70
2023-04-22T06:51:31.416Z,6.40
2023-04-22T06:53:58.594Z,5.80
2023-04-22T06:56:25.542Z,5.20
2023-04-22T06:58:56.477Z,5.40
2023-04-22T07:01:23.406Z,5.40
2023-04-22T07:03:51.297Z,5.40
2023-04-22T07:06:19.013Z,5.40
2023-04-22T07:09:02.388Z,5.10
2023-04-22T07:11:31.090Z,5.40
2023-04-22T07:14:06.497Z,5.40
2023-04-22T07:16:33.439Z,5.10
2023-04-22T07:19:00.341Z,5.10
2023-04-22T07:21:27.136Z,4.00
2023-04-22T07:23:53.836Z,4.60
2023-04-22T07:26:20.760Z,4.60
2023-04-22T07:28:47.650Z,5.20
2023-04-22T07:31:14.500Z,5.40
2023-04-22T07:33:45.921Z,4.90
2023-04-22T07:36:13.071Z,4.80
2023-04-22T07:38:40.073Z,4.70
2023-04-22T07:41:06.838Z,5.20
2023-04-22T07:43:33.752Z,5.40
2023-04-22T07:46:00.743Z,5.10
2023-04-22T07:48:27.892Z,4.80
2023-04-22T07:50:54.772Z,5.10
2023-04-22T07:53:21.613Z,5.00
2023-04-22T07:55:49.291Z,5.20
2023-04-22T07:58:16.919Z,4.50
2023-04-22T08:00:43.734Z,4.40
2023-04-22T08:03:10.926Z,4.90
2023-04-22T08:05:37.954Z,4.60
2023-04-22T08:08:05.809Z,5.20
2023-04-22T08:10:32.936Z,4.60
2023-04-22T08:12:59.976Z,4.90
2023-04-22T08:15:26.797Z,5.00
2023-04-22T08:17:53.533Z,4.80
2023-04-22T08:20:20.288Z,5.10
2023-04-22T08:22:48.154Z,5.00
2023-04-22T08:25:14.937Z,4.80
2023-04-22T08:27:41.762Z,4.80
2023-04-22T08:30:09.547Z,5.60
2023-04-22T08:32:37.445Z,5.50
2023-04-22T08:35:05.615Z,5.80
2023-04-22T08:37:34.135Z,4.80
2023-04-22T08:40:04.830Z,4.20
2023-04-22T08:42:32.076Z,4.60
2023-04-22T08:44:59.771Z,4.80
2023-04-22T08:47:28.289Z,4.70
2023-04-22T08:49:58.521Z,5.00
2023-04-22T08:52:44.316Z,4.40
2023-04-22T08:55:11.112Z,4.40
2023-04-22T08:57:39.472Z,4.10
2023-04-22T09:00:08.428Z,5.00
2023-04-22T09:02:37.169Z,4.30
2023-04-22T09:05:06.643Z,4.30
2023-04-22T09:07:34.918Z,4.50
2023-04-22T09:10:06.418Z,4.40
2023-04-22T09:12:33.242Z,4.30
2023-04-22T09:14:59.934Z,3.90
2023-04-22T09:17:32.033Z,4.30
2023-04-22T09:20:00.760Z,4.00
2023-04-22T09:22:36.462Z,4.40
2023-04-22T09:25:28.516Z,4.50
2023-04-22T09:27:57.678Z,6.70
2023-04-22T09:30:31.007Z,4.80
2023-04-22T09:32:59.848Z,4.40
2023-04-22T09:35:39.387Z,4.90
2023-04-22T09:38:08.454Z,3.90
2023-04-22T09:40:37.510Z,4.30
2023-04-22T09:43:07.407Z,4.50
2023-04-22T09:45:39.581Z,5.00
2023-04-22T09:48:09.184Z,4.00
2023-04-22T09:50:38.170Z,4.50
2023-04-22T09:53:07.628Z,3.90
2023-04-22T09:55:37.724Z,4.10
2023-04-22T09:58:09.431Z,4.30
2023-04-22T10:00:48.109Z,4.30
2023-04-22T10:03:16.386Z,3.70
2023-04-22T10:05:45.197Z,4.10
2023-04-22T10:08:14.157Z,3.40
2023-04-22T10:10:43.446Z,4.00
2023-04-22T10:13:10.530Z,4.20
2023-04-22T10:15:56.462Z,4.10
2023-04-22T10:18:27.466Z,3.70
2023-04-22T10:20:56.302Z,3.60
2023-04-22T10:23:24.347Z,3.80
2023-04-22T10:25:55.236Z,3.70
2023-04-22T10:28:23.819Z,3.60
2023-04-22T10:30:50.856Z,4.20
2023-04-22T10:33:20.844Z,3.70
2023-04-22T10:36:31.265Z,3.70
2023-04-22T10:38:57.933Z,3.60
2023-04-22T10:41:35.162Z,3.60
2023-04-22T10:44:06.647Z,3.60
2023-04-22T10:46:34.062Z,3.80
2023-04-22T10:49:10.865Z,4.60
2023-04-22T10:51:46.740Z,3.80
2023-04-22T10:54:39.482Z,3.90
2023-04-22T10:57:07.732Z,3.90
2023-04-22T10:59:45.119Z,3.90
2023-04-22T11:02:14.374Z,3.90
2023-04-22T11:04:42.058Z,4.60
2023-04-22T11:07:22.548Z,4.20
2023-04-22T11:09:51.303Z,4.40
2023-04-22T11:12:39.453Z,4.00
2023-04-22T11:15:16.085Z,2.50
2023-04-22T11:17:45.076Z,2.90
2023-04-22T11:20:20.797Z,2.90
2023-04-22T11:23:05.000Z,3.20
2023-04-22T11:25:31.898Z,3.00
2023-04-22T11:27:59.140Z,4.30
2023-04-22T11:30:30.964Z,3.80
2023-04-22T11:33:00.361Z,2.70
2023-04-22T11:35:30.879Z,2.90
2023-04-22T11:38:08.250Z,2.60
2023-04-22T11:40:45.950Z,2.80
2023-04-22T11:43:13.955Z,2.50
2023-04-22T11:45:57.649Z,2.70
2023-04-22T11:48:24.759Z,3.30
2023-04-22T11:51:08.242Z,3.10
2023-04-22T11:53:35.387Z,3.10
2023-04-22T11:56:03.474Z,3.10
2023-04-22T11:58:30.827Z,3.30
2023-04-22T12:00:58.627Z,3.60
2023-04-22T12:03:29.962Z,3.00
2023-04-22T12:06:03.329Z,3.30
2023-04-22T12:08:39.310Z,3.80
2023-04-22T12:11:08.943Z,3.40
2023-04-22T12:13:40.577Z,3.60
2023-04-22T12:16:38.971Z,3.50
2023-04-22T12:19:05.714Z,3.60
2023-04-22T12:21:32.837Z,3.60
2023-04-22T12:24:09.908Z,2.90
2023-04-22T12:26:40.101Z,3.80
2023-04-22T12:29:06.894Z,3.20
2023-04-22T12:31:33.929Z,3.20
2023-04-22T12:34:01.617Z,2.90
2023-04-22T12:36:29.184Z,4.30
2023-04-22T12:38:56.026Z,5.00
2023-04-22T12:41:23.151Z,4.20
2023-04-22T12:43:50.133Z,3.40
2023-04-22T12:46:17.043Z,3.40
2023-04-22T12:48:44.249Z,3.40
2023-04-22T12:51:15.846Z,4.30
2023-04-22T12:53:42.732Z,4.30
2023-04-22T12:56:29.864Z,3.70
2023-04-22T12:59:02.571Z,3.50
2023-04-22T13:01:33.886Z,2.50
2023-04-22T13:04:02.874Z,2.90
2023-04-22T13:06:30.839Z,3.10
2023-04-22T13:09:01.492Z,4.00
2023-04-22T13:11:48.896Z,3.80
2023-04-22T13:14:15.664Z,3.20
2023-04-22T13:16:51.295Z,3.60
2023-04-22T13:19:18.117Z,3.10
2023-04-22T13:21:44.998Z,3.30
2023-04-22T13:24:11.837Z,3.40
2023-04-22T13:26:54.612Z,4.00
2023-04-22T13:29:21.494Z,3.90
2023-04-22T13:31:48.579Z,3.50
2023-04-22T13:34:15.670Z,4.10
2023-04-22T13:36:42.472Z,4.20
2023-04-22T13:39:09.323Z,3.60
2023-04-22T13:41:38.805Z,4.10
2023-04-22T13:44:05.737Z,3.50
2023-04-22T13:46:32.726Z,3.70
2023-04-22T13:48:59.760Z,4.50
2023-04-22T13:51:26.752Z,4.00
2023-04-22T13:53:53.545Z,3.20
2023-04-22T13:56:20.464Z,4.20
2023-04-22T13:58:47.241Z,3.50
2023-04-22T14:01:14.323Z,3.70
2023-04-22T14:03:41.263Z,3.00
2023-04-22T14:06:08.654Z,3.70
2023-04-22T14:08:37.370Z,3.10
2023-04-22T14:11:05.913Z,3.10
2023-04-22T14:13:33.204Z,3.00
2023-04-22T14:16:02.741Z,6.00
2023-04-22T14:18:29.435Z,3.10
2023-04-22T14:20:56.607Z,2.40
2023-04-22T14:23:23.492Z,3.30
2023-04-22T14:25:50.381Z,5.80
2023-04-22T14:28:17.325Z,2.90
2023-04-22T14:30:44.786Z,2.80
2023-04-22T14:33:12.209Z,2.70
2023-04-22T14:35:39.451Z,2.70
2023-04-22T14:38:08.522Z,2.60
2023-04-22T14:40:35.537Z,3.00
2023-04-22T14:43:25.630Z,2.10
2023-04-22T14:45:52.654Z,2.30
2023-04-22T14:48:19.501Z,2.80
2023-04-22T14:50:46.303Z,2.20
2023-04-22T14:53:13.062Z,2.50
2023-04-22T14:55:39.834Z,2.60
2023-04-22T14:58:14.574Z,2.50
2023-04-22T15:00:41.333Z,2.50
2023-04-22T15:03:08.631Z,2.20
2023-04-22T15:05:35.932Z,2.50
2023-04-22T15:08:02.730Z,2.90
2023-04-22T15:10:29.579Z,2.20
2023-04-22T15:13:00.978Z,2.40
2023-04-22T15:15:27.945Z,2.40
2023-04-22T15:17:54.855Z,2.40
2023-04-22T15:20:21.711Z,2.40
2023-04-22T15:22:48.530Z,2.80
2023-04-22T15:25:17.381Z,2.80
2023-04-22T15:28:05.518Z,2.80
2023-04-22T15:30:32.227Z,2.20
2023-04-22T15:33:01.179Z,3.10
2023-04-22T15:35:28.057Z,2.10
2023-04-22T15:37:56.950Z,2.70
2023-04-22T15:40:24.075Z,2.30
2023-04-22T15:42:50.782Z,2.80
2023-04-22T15:45:17.777Z,3.90
2023-04-22T15:47:44.666Z,2.90
2023-04-22T15:50:11.632Z,2.70
2023-04-22T15:52:38.467Z,2.70
2023-04-22T15:55:07.100Z,2.90
2023-04-22T15:57:34.044Z,3.50
2023-04-22T16:00:12.337Z,7.60
2023-04-22T16:02:43.793Z,31.80
2023-04-22T16:05:11.762Z,21.80
2023-04-22T16:07:39.693Z,3.00
2023-04-22T16:10:07.377Z,2.20
2023-04-22T16:12:34.537Z,2.10
2023-04-22T16:15:01.956Z,2.70
2023-04-22T16:17:29.770Z,2.40
2023-04-22T16:19:56.803Z,2.50
2023-04-22T16:22:23.772Z,2.60
2023-04-22T16:24:50.653Z,2.40
2023-04-22T16:27:18.663Z,10.40
2023-04-22T16:30:07.618Z,4.50
2023-04-22T16:32:43.563Z,4.50
2023-04-22T16:35:15.612Z,4.40
2023-04-22T16:37:42.898Z,3.90
2023-04-22T16:40:10.038Z,2.60
2023-04-22T16:42:36.818Z,3.50
2023-04-22T16:45:09.447Z,2.90
2023-04-22T16:47:36.240Z,2.80
2023-04-22T16:50:03.361Z,3.20
2023-04-22T16:52:30.716Z,3.50
2023-04-22T16:54:57.504Z,3.70
2023-04-22T16:57:24.430Z,9.00
2023-04-22T16:59:51.285Z,17.80
2023-04-22T17:02:18.196Z,31.70
2023-04-22T17:04:45.024Z,26.20
2023-04-22T17:07:11.865Z,25.80
2023-04-22T17:09:48.420Z,24.90
2023-04-22T17:12:15.559Z,21.50
2023-04-22T17:14:46.414Z,35.60
2023-04-22T17:17:13.362Z,25.10
2023-04-22T17:19:40.504Z,18.20
2023-04-22T17:22:07.517Z,29.20
2023-04-22T17:24:35.148Z,27.90
2023-04-22T17:27:02.562Z,35.20
2023-04-22T17:29:31.407Z,37.10
2023-04-22T17:31:58.259Z,49.30
2023-04-22T17:34:29.006Z,25.60
2023-04-22T17:36:56.276Z,30.10
2023-04-22T17:39:39.987Z,41.60
2023-04-22T17:42:07.086Z,19.50
2023-04-22T17:44:36.886Z,16.60
2023-04-22T17:47:05.309Z,13.20
2023-04-22T17:49:34.055Z,10.50
2023-04-22T17:52:01.093Z,10.60
2023-04-22T17:54:28.093Z,11.80
2023-04-22T17:56:55.002Z,12.20
2023-04-22T17:59:45.546Z,8.40
2023-04-22T18:02:12.706Z,9.30
2023-04-22T18:04:41.525Z,11.50
2023-04-22T18:07:08.194Z,12.60
2023-04-22T18:09:35.043Z,11.80
2023-04-22T18:12:02.036Z,13.80
2023-04-22T18:14:28.768Z,9.30
2023-04-22T18:16:55.557Z,9.40
2023-04-22T18:19:22.350Z,8.60
2023-04-22T18:21:59.586Z,14.30
2023-04-22T18:24:27.604Z,20.10
2023-04-22T18:26:54.631Z,13.30
2023-04-22T18:29:42.034Z,22.80
2023-04-22T18:32:10.662Z,16.80
2023-04-22T18:34:59.704Z,12.30
2023-04-22T18:37:30.115Z,10.50
2023-04-22T18:39:57.068Z,9.10
2023-04-22T18:42:23.827Z,7.20
2023-04-22T18:44:51.345Z,8.20
2023-04-22T18:47:18.086Z,18.50
2023-04-22T18:49:45.810Z,11.60
2023-04-22T18:52:13.016Z,10.20
2023-04-22T18:54:47.975Z,13.00
2023-04-22T18:57:15.014Z,15.20
2023-04-22T18:59:41.981Z,11.50
2023-04-22T19:02:12.393Z,6.80
2023-04-22T19:04:47.347Z,5.90
2023-04-22T19:07:24.987Z,4.80
2023-04-22T19:09:51.928Z,6.60
2023-04-22T19:12:20.709Z,6.00
2023-04-22T19:14:58.771Z,5.50
2023-04-22T19:17:28.844Z,5.50
2023-04-22T19:19:57.514Z,4.40
2023-04-22T19:22:24.340Z,4.00
2023-04-22T19:24:51.487Z,4.30
2023-04-22T19:27:18.464Z,4.70
2023-04-22T19:29:56.205Z,5.00
2023-04-22T19:32:29.550Z,4.50
2023-04-22T19:34:56.607Z,5.10
2023-04-22T19:37:23.804Z,4.40
2023-04-22T19:39:50.816Z,4.80
2023-04-22T19:42:20.320Z,4.60
2023-04-22T19:44:48.048Z,4.70
2023-04-22T19:47:15.415Z,4.90
2023-04-22T19:49:43.429Z,4.20
2023-04-22T19:52:17.049Z,4.90
2023-04-22T19:54:47.646Z,4.70
2023-04-22T19:57:15.161Z,4.40
2023-04-22T19:59:43.076Z,4.60
2023-04-22T20:02:10.881Z,4.80
2023-04-22T20:04:38.102Z,4.40
2023-04-22T20:07:06.628Z,4.70
2023-04-22T20:09:35.313Z,4.80
2023-04-22T20:12:04.299Z,5.00
2023-04-22T20:14:32.299Z,4.70
2023-04-22T20:16:59.368Z,4.80
2023-04-22T20:19:27.880Z,5.90
2023-04-22T20:21:58.133Z,6.60
2023-04-22T20:24:27.985Z,4.70
2023-04-22T20:26:55.772Z,4.90
2023-04-22T20:29:23.328Z,4.80
2023-04-22T20:32:12.449Z,5.30
2023-04-22T20:34:39.659Z,5.50
2023-04-22T20:37:09.835Z,5.00
2023-04-22T20:39:37.914Z,4.90
2023-04-22T20:42:08.486Z,5.80
2023-04-22T20:44:35.237Z,5.50
2023-04-22T20:47:08.553Z,5.40
2023-04-22T20:49:39.842Z,5.30
2023-04-22T20:52:08.126Z,6.40
2023-04-22T20:54:35.659Z,6.00
2023-04-22T20:57:05.349Z,5.20
2023-04-22T20:59:33.305Z,6.20
2023-04-22T21:02:09.342Z,6.20
2023-04-22T21:04:44.442Z,5.50
2023-04-22T21:07:24.192Z,5.60
2023-04-22T21:09:53.494Z,5.90
2023-04-22T21:12:30.376Z,6.50
2023-04-22T21:15:16.159Z,6.30
2023-04-22T21:17:52.068Z,6.30
2023-04-22T21:20:19.241Z,5.70
2023-04-22T21:22:46.698Z,6.30
2023-04-22T21:25:21.106Z,6.10
2023-04-22T21:27:48.072Z,6.50
2023-04-22T21:30:15.435Z,4.40
2023-04-22T21:32:42.449Z,6.30
2023-04-22T21:35:09.540Z,5.70
2023-04-22T21:38:00.611Z,5.90
2023-04-22T21:40:27.873Z,7.10
2023-04-22T21:42:54.951Z,6.40
2023-04-22T21:45:21.693Z,6.70
2023-04-22T21:47:49.150Z,7.90
2023-04-22T21:50:15.956Z,6.50
2023-04-22T21:52:42.850Z,7.90
2023-04-22T21:55:11.149Z,6.80
2023-04-22T21:57:38.122Z,6.90
2023-04-22T22:00:14.489Z,6.60
2023-04-22T22:02:42.703Z,6.90
2023-04-22T22:05:10.469Z,6.60
2023-04-22T22:07:40.149Z,8.40
2023-04-22T22:10:09.519Z,7.20
2023-04-22T22:12:45.087Z,8.00
2023-04-22T22:15:12.049Z,7.30
2023-04-22T22:17:39.485Z,6.70
2023-04-22T22:20:15.669Z,6.40
2023-04-22T22:22:46.646Z,7.00
2023-04-22T22:25:15.532Z,7.40
2023-04-22T22:27:48.227Z,8.40
2023-04-22T22:30:16.784Z,8.00
2023-04-22T22:32:52.240Z,8.80
2023-04-22T22:35:19.032Z,8.80
2023-04-22T22:37:45.890Z,8.80
2023-04-22T22:40:12.836Z,9.10
2023-04-22T22:42:43.444Z,9.10
2023-04-22T22:45:10.915Z,6.80
2023-04-22T22:47:38.237Z,8.40
2023-04-22T22:50:06.558Z,9.20
2023-04-22T22:52:37.135Z,8.10
2023-04-22T22:55:04.317Z,7.50
2023-04-22T22:57:31.050Z,7.50
2023-04-22T22:59:57.727Z,7.00
2023-04-22T23:02:24.641Z,9.10
2023-04-22T23:04:51.799Z,8.00
2023-04-22T23:07:18.626Z,7.10
2023-04-22T23:09:45.647Z,7.70
2023-04-22T23:12:28.559Z,8.30
2023-04-22T23:14:55.357Z,7.50
2023-04-22T23:17:42.382Z,7.50
2023-04-22T23:20:10.605Z,8.10
2023-04-22T23:22:55.331Z,7.50
2023-04-22T23:25:22.488Z,7.70
2023-04-22T23:27:52.770Z,7.60
2023-04-22T23:30:20.324Z,7.60
2023-04-22T23:32:48.181Z,8.50
2023-04-22T23:35:15.265Z,9.50
2023-04-22T23:37:45.931Z,10.70
2023-04-22T23:40:12.975Z,10.40
2023-04-22T23:42:40.215Z,9.80
2023-04-22T23:45:07.649Z,10.10
2023-04-22T23:47:42.296Z,9.20
2023-04-22T23:50:09.854Z,9.60
2023-04-22T23:52:57.310Z,9.30
2023-04-22T23:55:25.006Z,7.80
2023-04-22T23:58:20.784Z,8.40
